sensor_id;sensor_type;location;lat;lon;timestamp;P1;durP1;ratioP1;P2;durP2;ratioP2
46613;SDS011;32338;50.430;6.806;2022-07-22T00:00:52;8.35;;;4.72;;
46613;SDS011;32338;50.430;6.806;2022-07-22T00:03:18;4.65;;;4.22;;
46613;SDS011;32338;50.430;6.806;2022-07-22T00:05:45;4.57;;;4.05;;
46613;SDS011;32338;50.430;6.806;2022-07-22T00:08:12;4.13;;;3.35;;
46613;SDS011;32338;50.430;6.806;2022-07-22T00:10:40;4.40;;;4.00;;
46613;SDS011;32338;50.430;6.806;2022-07-22T00:13:07;4.35;;;3.72;;
46613;SDS011;32338;50.430;6.806;2022-07-22T00:15:34;4.38;;;3.75;;
46613;SDS011;32338;50.430;6.806;2022-07-22T00:18:01;4.07;;;3.50;;
46613;SDS011;32338;50.430;6.806;2022-07-22T00:20:27;3.97;;;3.60;;
46613;SDS011;32338;50.430;6.806;2022-07-22T00:22:54;4.90;;;3.50;;
46613;SDS011;32338;50.430;6.806;2022-07-22T00:25:21;5.38;;;3.47;;
46613;SDS011;32338;50.430;6.806;2022-07-22T00:27:49;5.55;;;4.10;;
46613;SDS011;32338;50.430;6.806;2022-07-22T00:30:15;5.72;;;4.00;;
46613;SDS011;32338;50.430;6.806;2022-07-22T00:32:42;6.28;;;4.45;;
46613;SDS011;32338;50.430;6.806;2022-07-22T00:35:09;4.90;;;4.50;;
46613;SDS011;32338;50.430;6.806;2022-07-22T00:37:36;4.85;;;4.45;;
46613;SDS011;32338;50.430;6.806;2022-07-22T00:40:03;4.97;;;4.28;;
46613;SDS011;32338;50.430;6.806;2022-07-22T00:42:30;5.38;;;4.68;;
46613;SDS011;32338;50.430;6.806;2022-07-22T00:44:58;6.68;;;5.00;;
46613;SDS011;32338;50.430;6.806;2022-07-22T00:47:25;4.88;;;4.00;;
46613;SDS011;32338;50.430;6.806;2022-07-22T00:49:51;5.15;;;4.65;;
46613;SDS011;32338;50.430;6.806;2022-07-22T00:52:18;5.72;;;4.65;;
46613;SDS011;32338;50.430;6.806;2022-07-22T00:54:45;4.45;;;4.05;;
46613;SDS011;32338;50.430;6.806;2022-07-22T00:57:12;4.47;;;4.07;;
46613;SDS011;32338;50.430;6.806;2022-07-22T00:59:39;6.50;;;5.05;;
46613;SDS011;32338;50.430;6.806;2022-07-22T01:02:09;5.57;;;5.18;;
46613;SDS011;32338;50.430;6.806;2022-07-22T01:04:36;6.10;;;4.78;;
46613;SDS011;32338;50.430;6.806;2022-07-22T01:07:02;4.25;;;3.95;;
46613;SDS011;32338;50.430;6.806;2022-07-22T01:09:29;5.35;;;3.95;;
46613;SDS011;32338;50.430;6.806;2022-07-22T01:11:56;5.68;;;4.57;;
46613;SDS011;32338;50.430;6.806;2022-07-22T01:14:23;7.00;;;4.53;;
46613;SDS011;32338;50.430;6.806;2022-07-22T01:16:49;4.72;;;4.32;;
46613;SDS011;32338;50.430;6.806;2022-07-22T01:19:17;6.32;;;4.80;;
46613;SDS011;32338;50.430;6.806;2022-07-22T01:21:46;4.63;;;4.22;;
46613;SDS011;32338;50.430;6.806;2022-07-22T01:24:12;4.97;;;4.20;;
46613;SDS011;32338;50.430;6.806;2022-07-22T01:26:39;4.90;;;4.40;;
46613;SDS011;32338;50.430;6.806;2022-07-22T01:29:06;5.90;;;4.47;;
46613;SDS011;32338;50.430;6.806;2022-07-22T01:31:33;5.60;;;4.88;;
46613;SDS011;32338;50.430;6.806;2022-07-22T01:34:00;4.78;;;4.38;;
46613;SDS011;32338;50.430;6.806;2022-07-22T01:36:27;5.50;;;3.90;;
46613;SDS011;32338;50.430;6.806;2022-07-22T01:38:55;5.22;;;4.82;;
46613;SDS011;32338;50.430;6.806;2022-07-22T01:41:22;5.70;;;4.40;;
46613;SDS011;32338;50.430;6.806;2022-07-22T01:43:49;7.80;;;5.03;;
46613;SDS011;32338;50.430;6.806;2022-07-22T01:46:16;4.70;;;4.25;;
46613;SDS011;32338;50.430;6.806;2022-07-22T01:48:43;9.93;;;3.90;;
46613;SDS011;32338;50.430;6.806;2022-07-22T01:51:10;7.65;;;4.38;;
46613;SDS011;32338;50.430;6.806;2022-07-22T01:53:37;9.07;;;5.22;;
46613;SDS011;32338;50.430;6.806;2022-07-22T01:56:06;9.10;;;5.40;;
46613;SDS011;32338;50.430;6.806;2022-07-22T01:58:33;5.80;;;5.15;;
46613;SDS011;32338;50.430;6.806;2022-07-22T02:01:00;7.25;;;5.30;;
46613;SDS011;32338;50.430;6.806;2022-07-22T02:03:27;6.03;;;5.03;;
46613;SDS011;32338;50.430;6.806;2022-07-22T02:05:53;9.30;;;4.72;;
46613;SDS011;32338;50.430;6.806;2022-07-22T02:08:20;7.28;;;5.25;;
46613;SDS011;32338;50.430;6.806;2022-07-22T02:10:47;6.22;;;5.20;;
46613;SDS011;32338;50.430;6.806;2022-07-22T02:13:15;9.40;;;5.78;;
46613;SDS011;32338;50.430;6.806;2022-07-22T02:15:42;11.68;;;6.15;;
46613;SDS011;32338;50.430;6.806;2022-07-22T02:18:09;12.50;;;5.55;;
46613;SDS011;32338;50.430;6.806;2022-07-22T02:20:37;6.75;;;5.47;;
46613;SDS011;32338;50.430;6.806;2022-07-22T02:23:04;5.47;;;4.97;;
46613;SDS011;32338;50.430;6.806;2022-07-22T02:25:32;5.68;;;5.03;;
46613;SDS011;32338;50.430;6.806;2022-07-22T02:27:58;7.97;;;5.18;;
46613;SDS011;32338;50.430;6.806;2022-07-22T02:30:27;5.53;;;4.85;;
46613;SDS011;32338;50.430;6.806;2022-07-22T02:32:53;8.13;;;5.03;;
46613;SDS011;32338;50.430;6.806;2022-07-22T02:35:20;7.55;;;4.95;;
46613;SDS011;32338;50.430;6.806;2022-07-22T02:37:47;9.07;;;4.25;;
46613;SDS011;32338;50.430;6.806;2022-07-22T02:40:13;8.10;;;4.57;;
46613;SDS011;32338;50.430;6.806;2022-07-22T02:42:40;5.82;;;4.80;;
46613;SDS011;32338;50.430;6.806;2022-07-22T02:45:07;4.82;;;4.32;;
46613;SDS011;32338;50.430;6.806;2022-07-22T02:47:36;6.93;;;5.80;;
46613;SDS011;32338;50.430;6.806;2022-07-22T02:50:11;8.60;;;5.55;;
46613;SDS011;32338;50.430;6.806;2022-07-22T02:52:38;6.20;;;4.53;;
46613;SDS011;32338;50.430;6.806;2022-07-22T02:55:05;12.13;;;5.13;;
46613;SDS011;32338;50.430;6.806;2022-07-22T02:57:32;8.43;;;5.43;;
46613;SDS011;32338;50.430;6.806;2022-07-22T02:59:59;8.00;;;5.80;;
46613;SDS011;32338;50.430;6.806;2022-07-22T03:02:25;6.10;;;5.55;;
46613;SDS011;32338;50.430;6.806;2022-07-22T03:04:53;6.93;;;5.10;;
46613;SDS011;32338;50.430;6.806;2022-07-22T03:07:20;6.97;;;5.45;;
46613;SDS011;32338;50.430;6.806;2022-07-22T03:09:46;6.10;;;5.50;;
46613;SDS011;32338;50.430;6.806;2022-07-22T03:12:13;5.35;;;4.85;;
46613;SDS011;32338;50.430;6.806;2022-07-22T03:14:40;6.60;;;4.78;;
46613;SDS011;32338;50.430;6.806;2022-07-22T03:17:07;8.48;;;4.60;;
46613;SDS011;32338;50.430;6.806;2022-07-22T03:19:33;4.88;;;4.38;;
46613;SDS011;32338;50.430;6.806;2022-07-22T03:22:01;7.43;;;4.80;;
46613;SDS011;32338;50.430;6.806;2022-07-22T03:24:28;7.80;;;4.55;;
46613;SDS011;32338;50.430;6.806;2022-07-22T03:26:54;5.93;;;4.97;;
46613;SDS011;32338;50.430;6.806;2022-07-22T03:29:21;9.95;;;4.72;;
46613;SDS011;32338;50.430;6.806;2022-07-22T03:31:48;6.18;;;5.43;;
46613;SDS011;32338;50.430;6.806;2022-07-22T03:34:14;5.95;;;4.85;;
46613;SDS011;32338;50.430;6.806;2022-07-22T03:36:41;6.25;;;4.85;;
46613;SDS011;32338;50.430;6.806;2022-07-22T03:39:09;5.45;;;4.80;;
46613;SDS011;32338;50.430;6.806;2022-07-22T03:41:36;5.50;;;4.30;;
46613;SDS011;32338;50.430;6.806;2022-07-22T03:44:03;4.95;;;4.47;;
46613;SDS011;32338;50.430;6.806;2022-07-22T03:46:30;6.38;;;4.88;;
46613;SDS011;32338;50.430;6.806;2022-07-22T03:48:56;4.68;;;4.35;;
46613;SDS011;32338;50.430;6.806;2022-07-22T03:51:23;6.38;;;4.90;;
46613;SDS011;32338;50.430;6.806;2022-07-22T03:53:49;5.55;;;5.05;;
46613;SDS011;32338;50.430;6.806;2022-07-22T03:56:17;7.40;;;6.25;;
46613;SDS011;32338;50.430;6.806;2022-07-22T03:58:44;9.90;;;6.28;;
46613;SDS011;32338;50.430;6.806;2022-07-22T04:01:11;6.43;;;5.80;;
46613;SDS011;32338;50.430;6.806;2022-07-22T04:03:37;6.97;;;6.28;;
46613;SDS011;32338;50.430;6.806;2022-07-22T04:06:05;10.57;;;5.95;;
46613;SDS011;32338;50.430;6.806;2022-07-22T04:08:32;11.35;;;6.05;;
46613;SDS011;32338;50.430;6.806;2022-07-22T04:10:59;8.75;;;5.95;;
46613;SDS011;32338;50.430;6.806;2022-07-22T04:13:27;8.25;;;5.93;;
46613;SDS011;32338;50.430;6.806;2022-07-22T04:15:54;7.75;;;5.53;;
46613;SDS011;32338;50.430;6.806;2022-07-22T04:18:20;8.25;;;5.53;;
46613;SDS011;32338;50.430;6.806;2022-07-22T04:20:47;9.10;;;5.60;;
46613;SDS011;32338;50.430;6.806;2022-07-22T04:23:14;8.50;;;6.43;;
46613;SDS011;32338;50.430;6.806;2022-07-22T04:25:40;9.05;;;5.85;;
46613;SDS011;32338;50.430;6.806;2022-07-22T04:28:07;8.80;;;5.80;;
46613;SDS011;32338;50.430;6.806;2022-07-22T04:30:35;7.28;;;5.30;;
46613;SDS011;32338;50.430;6.806;2022-07-22T04:33:02;8.85;;;5.13;;
46613;SDS011;32338;50.430;6.806;2022-07-22T04:35:28;9.70;;;6.38;;
46613;SDS011;32338;50.430;6.806;2022-07-22T04:37:55;10.95;;;7.03;;
46613;SDS011;32338;50.430;6.806;2022-07-22T04:40:22;9.18;;;6.22;;
46613;SDS011;32338;50.430;6.806;2022-07-22T04:42:48;8.90;;;5.25;;
46613;SDS011;32338;50.430;6.806;2022-07-22T04:45:15;9.95;;;6.50;;
46613;SDS011;32338;50.430;6.806;2022-07-22T04:47:43;9.77;;;7.88;;
46613;SDS011;32338;50.430;6.806;2022-07-22T04:50:10;11.23;;;7.20;;
46613;SDS011;32338;50.430;6.806;2022-07-22T04:52:37;8.05;;;6.85;;
46613;SDS011;32338;50.430;6.806;2022-07-22T04:55:04;11.10;;;7.93;;
46613;SDS011;32338;50.430;6.806;2022-07-22T04:57:32;13.48;;;6.63;;
46613;SDS011;32338;50.430;6.806;2022-07-22T04:59:58;8.90;;;7.90;;
46613;SDS011;32338;50.430;6.806;2022-07-22T05:02:25;8.88;;;7.97;;
46613;SDS011;32338;50.430;6.806;2022-07-22T05:04:53;9.82;;;8.30;;
46613;SDS011;32338;50.430;6.806;2022-07-22T05:07:20;6.43;;;5.82;;
46613;SDS011;32338;50.430;6.806;2022-07-22T05:09:46;10.80;;;7.28;;
46613;SDS011;32338;50.430;6.806;2022-07-22T05:12:13;9.73;;;8.70;;
46613;SDS011;32338;50.430;6.806;2022-07-22T05:14:40;12.13;;;10.02;;
46613;SDS011;32338;50.430;6.806;2022-07-22T05:17:08;13.25;;;10.30;;
46613;SDS011;32338;50.430;6.806;2022-07-22T05:19:37;10.23;;;8.70;;
46613;SDS011;32338;50.430;6.806;2022-07-22T05:22:05;13.90;;;9.48;;
46613;SDS011;32338;50.430;6.806;2022-07-22T05:24:32;11.52;;;8.52;;
46613;SDS011;32338;50.430;6.806;2022-07-22T05:26:59;10.00;;;8.40;;
46613;SDS011;32338;50.430;6.806;2022-07-22T05:29:26;11.35;;;9.55;;
46613;SDS011;32338;50.430;6.806;2022-07-22T05:31:53;13.02;;;9.57;;
46613;SDS011;32338;50.430;6.806;2022-07-22T05:34:20;9.98;;;9.00;;
46613;SDS011;32338;50.430;6.806;2022-07-22T05:36:46;10.45;;;9.38;;
46613;SDS011;32338;50.430;6.806;2022-07-22T05:39:14;11.77;;;9.48;;
46613;SDS011;32338;50.430;6.806;2022-07-22T05:41:41;12.13;;;9.23;;
46613;SDS011;32338;50.430;6.806;2022-07-22T05:44:08;15.00;;;9.93;;
46613;SDS011;32338;50.430;6.806;2022-07-22T05:46:34;11.05;;;9.80;;
46613;SDS011;32338;50.430;6.806;2022-07-22T05:49:01;12.73;;;9.95;;
46613;SDS011;32338;50.430;6.806;2022-07-22T05:51:29;10.43;;;9.18;;
46613;SDS011;32338;50.430;6.806;2022-07-22T05:53:56;9.85;;;8.93;;
46613;SDS011;32338;50.430;6.806;2022-07-22T05:56:24;11.65;;;8.98;;
46613;SDS011;32338;50.430;6.806;2022-07-22T05:58:51;13.27;;;9.52;;
46613;SDS011;32338;50.430;6.806;2022-07-22T06:01:18;9.95;;;7.78;;
46613;SDS011;32338;50.430;6.806;2022-07-22T06:03:44;11.55;;;8.75;;
46613;SDS011;32338;50.430;6.806;2022-07-22T06:06:11;9.15;;;8.00;;
46613;SDS011;32338;50.430;6.806;2022-07-22T06:08:37;13.70;;;8.68;;
46613;SDS011;32338;50.430;6.806;2022-07-22T06:11:04;10.60;;;8.00;;
46613;SDS011;32338;50.430;6.806;2022-07-22T06:13:33;9.27;;;8.32;;
46613;SDS011;32338;50.430;6.806;2022-07-22T06:16:01;12.13;;;8.48;;
46613;SDS011;32338;50.430;6.806;2022-07-22T06:18:27;8.45;;;7.57;;
46613;SDS011;32338;50.430;6.806;2022-07-22T06:20:54;10.20;;;9.13;;
46613;SDS011;32338;50.430;6.806;2022-07-22T06:23:22;13.80;;;8.52;;
46613;SDS011;32338;50.430;6.806;2022-07-22T06:25:49;10.45;;;7.93;;
46613;SDS011;32338;50.430;6.806;2022-07-22T06:28:16;10.55;;;7.80;;
46613;SDS011;32338;50.430;6.806;2022-07-22T06:30:44;10.13;;;7.63;;
46613;SDS011;32338;50.430;6.806;2022-07-22T06:33:11;8.55;;;7.65;;
46613;SDS011;32338;50.430;6.806;2022-07-22T06:35:38;11.07;;;6.88;;
46613;SDS011;32338;50.430;6.806;2022-07-22T06:38:05;7.47;;;6.65;;
46613;SDS011;32338;50.430;6.806;2022-07-22T06:40:32;11.68;;;8.10;;
46613;SDS011;32338;50.430;6.806;2022-07-22T06:42:59;11.00;;;7.40;;
46613;SDS011;32338;50.430;6.806;2022-07-22T06:45:25;9.52;;;8.32;;
46613;SDS011;32338;50.430;6.806;2022-07-22T06:47:54;8.57;;;7.53;;
46613;SDS011;32338;50.430;6.806;2022-07-22T06:50:20;9.82;;;7.82;;
46613;SDS011;32338;50.430;6.806;2022-07-22T06:52:47;8.32;;;7.38;;
46613;SDS011;32338;50.430;6.806;2022-07-22T06:55:14;11.32;;;8.57;;
46613;SDS011;32338;50.430;6.806;2022-07-22T06:57:40;10.30;;;8.88;;
46613;SDS011;32338;50.430;6.806;2022-07-22T07:00:07;9.60;;;8.38;;
46613;SDS011;32338;50.430;6.806;2022-07-22T07:02:35;9.27;;;8.30;;
46613;SDS011;32338;50.430;6.806;2022-07-22T07:05:04;11.50;;;8.88;;
46613;SDS011;32338;50.430;6.806;2022-07-22T07:07:31;10.55;;;9.48;;
46613;SDS011;32338;50.430;6.806;2022-07-22T07:09:57;11.63;;;9.27;;
46613;SDS011;32338;50.430;6.806;2022-07-22T07:12:24;11.45;;;9.80;;
46613;SDS011;32338;50.430;6.806;2022-07-22T07:14:51;9.35;;;8.65;;
46613;SDS011;32338;50.430;6.806;2022-07-22T07:17:17;9.27;;;8.48;;
46613;SDS011;32338;50.430;6.806;2022-07-22T07:19:44;9.93;;;8.90;;
46613;SDS011;32338;50.430;6.806;2022-07-22T07:22:12;11.45;;;9.40;;
46613;SDS011;32338;50.430;6.806;2022-07-22T07:24:39;11.65;;;9.70;;
46613;SDS011;32338;50.430;6.806;2022-07-22T07:27:05;11.07;;;9.90;;
46613;SDS011;32338;50.430;6.806;2022-07-22T07:29:32;11.95;;;10.35;;
46613;SDS011;32338;50.430;6.806;2022-07-22T07:31:59;12.10;;;10.75;;
46613;SDS011;32338;50.430;6.806;2022-07-22T07:34:25;11.35;;;9.85;;
46613;SDS011;32338;50.430;6.806;2022-07-22T07:36:52;11.60;;;10.00;;
46613;SDS011;32338;50.430;6.806;2022-07-22T07:39:21;12.45;;;11.25;;
46613;SDS011;32338;50.430;6.806;2022-07-22T07:41:47;14.65;;;11.73;;
46613;SDS011;32338;50.430;6.806;2022-07-22T07:44:15;13.25;;;11.68;;
46613;SDS011;32338;50.430;6.806;2022-07-22T07:46:42;11.45;;;10.15;;
46613;SDS011;32338;50.430;6.806;2022-07-22T07:49:09;12.88;;;11.20;;
46613;SDS011;32338;50.430;6.806;2022-07-22T07:51:35;13.73;;;11.85;;
46613;SDS011;32338;50.430;6.806;2022-07-22T07:54:02;13.02;;;11.05;;
46613;SDS011;32338;50.430;6.806;2022-07-22T07:56:30;15.05;;;12.98;;
46613;SDS011;32338;50.430;6.806;2022-07-22T07:58:58;13.73;;;12.35;;
46613;SDS011;32338;50.430;6.806;2022-07-22T08:01:25;15.02;;;12.35;;
46613;SDS011;32338;50.430;6.806;2022-07-22T08:03:52;14.25;;;12.25;;
46613;SDS011;32338;50.430;6.806;2022-07-22T08:06:18;12.85;;;11.40;;
46613;SDS011;32338;50.430;6.806;2022-07-22T08:08:45;13.75;;;12.43;;
46613;SDS011;32338;50.430;6.806;2022-07-22T08:11:13;13.07;;;11.98;;
46613;SDS011;32338;50.430;6.806;2022-07-22T08:13:41;13.00;;;11.38;;
46613;SDS011;32338;50.430;6.806;2022-07-22T08:16:08;15.15;;;11.23;;
46613;SDS011;32338;50.430;6.806;2022-07-22T08:18:34;12.43;;;11.13;;
46613;SDS011;32338;50.430;6.806;2022-07-22T08:21:01;12.68;;;11.23;;
46613;SDS011;32338;50.430;6.806;2022-07-22T08:23:28;11.95;;;10.45;;
46613;SDS011;32338;50.430;6.806;2022-07-22T08:25:55;11.70;;;10.60;;
46613;SDS011;32338;50.430;6.806;2022-07-22T08:28:22;11.35;;;10.25;;
46613;SDS011;32338;50.430;6.806;2022-07-22T08:30:50;12.50;;;11.23;;
46613;SDS011;32338;50.430;6.806;2022-07-22T08:33:17;12.25;;;11.05;;
46613;SDS011;32338;50.430;6.806;2022-07-22T08:35:43;14.85;;;11.60;;
46613;SDS011;32338;50.430;6.806;2022-07-22T08:38:10;14.43;;;11.02;;
46613;SDS011;32338;50.430;6.806;2022-07-22T08:40:37;15.48;;;11.95;;
46613;SDS011;32338;50.430;6.806;2022-07-22T08:43:04;12.57;;;11.30;;
46613;SDS011;32338;50.430;6.806;2022-07-22T08:45:31;11.02;;;10.05;;
46613;SDS011;32338;50.430;6.806;2022-07-22T08:47:59;11.98;;;10.68;;
46613;SDS011;32338;50.430;6.806;2022-07-22T08:50:28;11.68;;;10.43;;
46613;SDS011;32338;50.430;6.806;2022-07-22T08:52:55;12.60;;;11.30;;
46613;SDS011;32338;50.430;6.806;2022-07-22T08:55:22;12.50;;;10.95;;
46613;SDS011;32338;50.430;6.806;2022-07-22T08:57:50;10.77;;;9.82;;
46613;SDS011;32338;50.430;6.806;2022-07-22T09:00:17;11.82;;;10.70;;
46613;SDS011;32338;50.430;6.806;2022-07-22T09:02:46;13.63;;;10.05;;
46613;SDS011;32338;50.430;6.806;2022-07-22T09:05:15;10.77;;;9.75;;
46613;SDS011;32338;50.430;6.806;2022-07-22T09:07:44;11.07;;;9.77;;
46613;SDS011;32338;50.430;6.806;2022-07-22T09:10:12;12.18;;;10.30;;
46613;SDS011;32338;50.430;6.806;2022-07-22T09:12:53;10.82;;;9.07;;
46613;SDS011;32338;50.430;6.806;2022-07-22T09:15:27;10.93;;;9.13;;
46613;SDS011;32338;50.430;6.806;2022-07-22T09:17:55;9.27;;;8.32;;
46613;SDS011;32338;50.430;6.806;2022-07-22T09:20:24;9.15;;;8.35;;
46613;SDS011;32338;50.430;6.806;2022-07-22T09:22:52;8.63;;;7.72;;
46613;SDS011;32338;50.430;6.806;2022-07-22T09:25:20;8.20;;;7.47;;
46613;SDS011;32338;50.430;6.806;2022-07-22T09:27:54;9.45;;;7.95;;
46613;SDS011;32338;50.430;6.806;2022-07-22T09:30:37;8.40;;;7.60;;
46613;SDS011;32338;50.430;6.806;2022-07-22T09:33:05;9.30;;;8.35;;
46613;SDS011;32338;50.430;6.806;2022-07-22T09:35:34;7.97;;;7.28;;
46613;SDS011;32338;50.430;6.806;2022-07-22T09:38:01;10.38;;;6.78;;
46613;SDS011;32338;50.430;6.806;2022-07-22T09:40:31;7.63;;;6.97;;
46613;SDS011;32338;50.430;6.806;2022-07-22T09:43:00;9.00;;;7.05;;
46613;SDS011;32338;50.430;6.806;2022-07-22T09:45:28;7.82;;;6.93;;
46613;SDS011;32338;50.430;6.806;2022-07-22T09:47:57;8.07;;;7.38;;
46613;SDS011;32338;50.430;6.806;2022-07-22T09:50:25;7.05;;;6.47;;
46613;SDS011;32338;50.430;6.806;2022-07-22T09:52:56;6.97;;;6.38;;
46613;SDS011;32338;50.430;6.806;2022-07-22T09:55:24;7.85;;;6.68;;
46613;SDS011;32338;50.430;6.806;2022-07-22T09:57:53;6.03;;;5.63;;
46613;SDS011;32338;50.430;6.806;2022-07-22T10:00:21;6.97;;;6.47;;
46613;SDS011;32338;50.430;6.806;2022-07-22T10:02:50;6.40;;;5.90;;
46613;SDS011;32338;50.430;6.806;2022-07-22T10:05:18;5.20;;;4.80;;
46613;SDS011;32338;50.430;6.806;2022-07-22T10:07:47;5.85;;;5.45;;
46613;SDS011;32338;50.430;6.806;2022-07-22T10:10:17;6.68;;;5.60;;
46613;SDS011;32338;50.430;6.806;2022-07-22T10:12:45;5.20;;;4.68;;
46613;SDS011;32338;50.430;6.806;2022-07-22T10:15:15;5.68;;;5.15;;
46613;SDS011;32338;50.430;6.806;2022-07-22T10:17:44;4.65;;;4.35;;
46613;SDS011;32338;50.430;6.806;2022-07-22T10:20:13;5.95;;;4.60;;
46613;SDS011;32338;50.430;6.806;2022-07-22T10:22:47;6.65;;;4.60;;
46613;SDS011;32338;50.430;6.806;2022-07-22T10:25:18;4.68;;;4.28;;
46613;SDS011;32338;50.430;6.806;2022-07-22T10:27:47;4.28;;;3.97;;
46613;SDS011;32338;50.430;6.806;2022-07-22T10:30:16;5.05;;;4.30;;
46613;SDS011;32338;50.430;6.806;2022-07-22T10:32:44;4.82;;;4.50;;
46613;SDS011;32338;50.430;6.806;2022-07-22T10:35:22;4.70;;;4.40;;
46613;SDS011;32338;50.430;6.806;2022-07-22T10:37:51;4.65;;;4.25;;
46613;SDS011;32338;50.430;6.806;2022-07-22T10:40:22;5.07;;;4.43;;
46613;SDS011;32338;50.430;6.806;2022-07-22T10:43:03;5.43;;;4.93;;
46613;SDS011;32338;50.430;6.806;2022-07-22T10:45:35;4.40;;;4.10;;
46613;SDS011;32338;50.430;6.806;2022-07-22T10:48:05;7.38;;;4.18;;
46613;SDS011;32338;50.430;6.806;2022-07-22T10:50:44;4.55;;;4.15;;
46613;SDS011;32338;50.430;6.806;2022-07-22T10:53:38;5.05;;;4.65;;
46613;SDS011;32338;50.430;6.806;2022-07-22T10:56:11;4.38;;;3.92;;
46613;SDS011;32338;50.430;6.806;2022-07-22T10:58:47;4.20;;;3.83;;
46613;SDS011;32338;50.430;6.806;2022-07-22T11:01:20;4.05;;;3.55;;
46613;SDS011;32338;50.430;6.806;2022-07-22T11:03:49;3.80;;;3.50;;
46613;SDS011;32338;50.430;6.806;2022-07-22T11:06:20;4.40;;;3.13;;
46613;SDS011;32338;50.430;6.806;2022-07-22T11:08:50;3.60;;;3.30;;
46613;SDS011;32338;50.430;6.806;2022-07-22T11:11:26;3.55;;;3.25;;
46613;SDS011;32338;50.430;6.806;2022-07-22T11:13:58;4.25;;;3.85;;
46613;SDS011;32338;50.430;6.806;2022-07-22T11:16:25;3.65;;;3.20;;
46613;SDS011;32338;50.430;6.806;2022-07-22T11:18:54;4.10;;;3.70;;
46613;SDS011;32338;50.430;6.806;2022-07-22T11:21:23;3.70;;;3.40;;
46613;SDS011;32338;50.430;6.806;2022-07-22T11:23:51;5.10;;;3.67;;
46613;SDS011;32338;50.430;6.806;2022-07-22T11:26:23;5.28;;;3.85;;
46613;SDS011;32338;50.430;6.806;2022-07-22T11:28:52;4.60;;;3.80;;
46613;SDS011;32338;50.430;6.806;2022-07-22T11:31:19;3.33;;;3.08;;
46613;SDS011;32338;50.430;6.806;2022-07-22T11:33:46;4.00;;;3.70;;
46613;SDS011;32338;50.430;6.806;2022-07-22T11:36:13;4.38;;;4.03;;
46613;SDS011;32338;50.430;6.806;2022-07-22T11:38:41;4.65;;;3.47;;
46613;SDS011;32338;50.430;6.806;2022-07-22T11:41:12;3.97;;;3.47;;
46613;SDS011;32338;50.430;6.806;2022-07-22T11:43:41;3.72;;;3.42;;
46613;SDS011;32338;50.430;6.806;2022-07-22T11:46:09;3.60;;;3.38;;
46613;SDS011;32338;50.430;6.806;2022-07-22T11:48:37;3.85;;;3.28;;
46613;SDS011;32338;50.430;6.806;2022-07-22T11:51:04;4.18;;;3.30;;
46613;SDS011;32338;50.430;6.806;2022-07-22T11:53:32;3.85;;;3.60;;
46613;SDS011;32338;50.430;6.806;2022-07-22T11:56:00;3.80;;;3.50;;
46613;SDS011;32338;50.430;6.806;2022-07-22T12:01:19;4.15;;;3.75;;
46613;SDS011;32338;50.430;6.806;2022-07-22T12:03:47;4.03;;;3.72;;
46613;SDS011;32338;50.430;6.806;2022-07-22T12:06:16;3.97;;;3.70;;
46613;SDS011;32338;50.430;6.806;2022-07-22T12:08:45;4.15;;;3.85;;
46613;SDS011;32338;50.430;6.806;2022-07-22T12:11:14;4.03;;;3.72;;
46613;SDS011;32338;50.430;6.806;2022-07-22T12:13:42;4.70;;;4.20;;
46613;SDS011;32338;50.430;6.806;2022-07-22T12:16:19;4.30;;;4.00;;
46613;SDS011;32338;50.430;6.806;2022-07-22T12:18:54;5.00;;;4.28;;
46613;SDS011;32338;50.430;6.806;2022-07-22T12:21:23;5.40;;;4.43;;
46613;SDS011;32338;50.430;6.806;2022-07-22T12:23:51;4.88;;;4.00;;
46613;SDS011;32338;50.430;6.806;2022-07-22T12:26:19;4.90;;;4.60;;
46613;SDS011;32338;50.430;6.806;2022-07-22T12:28:46;5.18;;;4.47;;
46613;SDS011;32338;50.430;6.806;2022-07-22T12:31:12;4.68;;;4.38;;
46613;SDS011;32338;50.430;6.806;2022-07-22T12:33:48;5.32;;;4.93;;
46613;SDS011;32338;50.430;6.806;2022-07-22T12:36:15;4.45;;;4.15;;
46613;SDS011;32338;50.430;6.806;2022-07-22T12:38:42;5.97;;;5.05;;
46613;SDS011;32338;50.430;6.806;2022-07-22T12:41:21;5.50;;;5.10;;
46613;SDS011;32338;50.430;6.806;2022-07-22T12:43:51;5.88;;;5.38;;
46613;SDS011;32338;50.430;6.806;2022-07-22T12:46:18;6.85;;;6.20;;
46613;SDS011;32338;50.430;6.806;2022-07-22T12:48:51;6.50;;;6.00;;
46613;SDS011;32338;50.430;6.806;2022-07-22T12:51:18;8.07;;;7.30;;
46613;SDS011;32338;50.430;6.806;2022-07-22T12:53:45;8.57;;;7.78;;
46613;SDS011;32338;50.430;6.806;2022-07-22T12:56:12;9.48;;;7.78;;
46613;SDS011;32338;50.430;6.806;2022-07-22T12:58:38;8.85;;;8.10;;
46613;SDS011;32338;50.430;6.806;2022-07-22T13:01:06;8.23;;;7.63;;
46613;SDS011;32338;50.430;6.806;2022-07-22T13:03:33;7.57;;;6.82;;
46613;SDS011;32338;50.430;6.806;2022-07-22T13:06:03;7.88;;;7.18;;
46613;SDS011;32338;50.430;6.806;2022-07-22T13:08:30;9.13;;;8.40;;
46613;SDS011;32338;50.430;6.806;2022-07-22T13:10:57;9.38;;;8.45;;
46613;SDS011;32338;50.430;6.806;2022-07-22T13:13:24;9.15;;;8.38;;
46613;SDS011;32338;50.430;6.806;2022-07-22T13:15:51;9.00;;;8.10;;
46613;SDS011;32338;50.430;6.806;2022-07-22T13:18:18;8.68;;;7.78;;
46613;SDS011;32338;50.430;6.806;2022-07-22T13:20:45;8.80;;;8.10;;
46613;SDS011;32338;50.430;6.806;2022-07-22T13:23:13;8.35;;;7.75;;
46613;SDS011;32338;50.430;6.806;2022-07-22T13:25:40;8.30;;;7.70;;
46613;SDS011;32338;50.430;6.806;2022-07-22T13:28:07;9.45;;;8.57;;
46613;SDS011;32338;50.430;6.806;2022-07-22T13:30:33;9.73;;;8.52;;
46613;SDS011;32338;50.430;6.806;2022-07-22T13:33:01;10.05;;;9.15;;
46613;SDS011;32338;50.430;6.806;2022-07-22T13:35:28;10.23;;;8.98;;
46613;SDS011;32338;50.430;6.806;2022-07-22T13:37:55;9.32;;;8.45;;
46613;SDS011;32338;50.430;6.806;2022-07-22T13:40:24;10.15;;;9.20;;
46613;SDS011;32338;50.430;6.806;2022-07-22T13:42:51;10.25;;;9.27;;
46613;SDS011;32338;50.430;6.806;2022-07-22T13:45:18;11.55;;;9.85;;
46613;SDS011;32338;50.430;6.806;2022-07-22T13:47:45;10.85;;;9.98;;
46613;SDS011;32338;50.430;6.806;2022-07-22T13:50:11;10.93;;;9.93;;
46613;SDS011;32338;50.430;6.806;2022-07-22T13:52:38;11.18;;;10.15;;
46613;SDS011;32338;50.430;6.806;2022-07-22T13:55:06;10.20;;;9.50;;
46613;SDS011;32338;50.430;6.806;2022-07-22T13:57:34;11.15;;;10.13;;
46613;SDS011;32338;50.430;6.806;2022-07-22T14:00:02;11.38;;;10.38;;
46613;SDS011;32338;50.430;6.806;2022-07-22T14:02:29;11.40;;;10.05;;
46613;SDS011;32338;50.430;6.806;2022-07-22T14:04:56;10.77;;;9.70;;
46613;SDS011;32338;50.430;6.806;2022-07-22T14:07:23;10.35;;;9.45;;
46613;SDS011;32338;50.430;6.806;2022-07-22T14:09:49;10.55;;;9.27;;
46613;SDS011;32338;50.430;6.806;2022-07-22T14:12:16;10.68;;;9.77;;
46613;SDS011;32338;50.430;6.806;2022-07-22T14:14:44;10.80;;;9.82;;
46613;SDS011;32338;50.430;6.806;2022-07-22T14:17:11;11.18;;;10.25;;
46613;SDS011;32338;50.430;6.806;2022-07-22T14:19:37;12.40;;;11.07;;
46613;SDS011;32338;50.430;6.806;2022-07-22T14:22:04;10.55;;;9.80;;
46613;SDS011;32338;50.430;6.806;2022-07-22T14:24:31;11.15;;;10.05;;
46613;SDS011;32338;50.430;6.806;2022-07-22T14:26:57;12.43;;;11.43;;
46613;SDS011;32338;50.430;6.806;2022-07-22T14:29:24;11.95;;;10.77;;
46613;SDS011;32338;50.430;6.806;2022-07-22T14:31:52;10.90;;;10.00;;
46613;SDS011;32338;50.430;6.806;2022-07-22T14:34:19;11.10;;;10.02;;
46613;SDS011;32338;50.430;6.806;2022-07-22T14:36:45;11.93;;;10.73;;
46613;SDS011;32338;50.430;6.806;2022-07-22T14:39:12;11.15;;;10.25;;
46613;SDS011;32338;50.430;6.806;2022-07-22T14:41:39;14.80;;;10.35;;
46613;SDS011;32338;50.430;6.806;2022-07-22T14:44:05;11.02;;;10.13;;
46613;SDS011;32338;50.430;6.806;2022-07-22T14:46:32;12.15;;;10.93;;